Time;durP1;ratioP1;P1;durP2;ratioP2;P2;SDS_P1;SDS_P2;PMS_P1;PMS_P2;Temp;Humidity;BMP_temperature;BMP_pressure;BME280_temperature;BME280_humidity;BME280_pressure;Samples;Min_cycle;Max_cycle;Signal;HPM_P1;HPM_P2
2023/09/17 00:01:57;;;;;;;;;;;;;;;21.89;56.24;101010.47;4976359;28;6214;-74
2023/09/17 00:04:24;;;;;;;;;;;;;;;21.82;56.09;101011.63;4991963;28;2045;-73
2023/09/17 00:06:50;;;;;;;;;;;;;;;21.78;56.37;101006.41;4972942;28;2289;-74
2023/09/17 00:09:20;;;;;;;;;;;;;;;21.74;56.52;101012.75;4974573;28;2129;-73
2023/09/17 00:11:46;;;;;;;;;;;;;;;21.78;56.07;101005.69;4973790;28;2311;-74
2023/09/17 00:14:13;;;;;;;;;;;;;;;21.79;55.76;101015.81;4971669;28;2184;-74
2023/09/17 00:16:39;;;;;;;;;;;;;;;21.79;56.11;101018.72;4977606;28;2145;-73
2023/09/17 00:19:06;;;;;;;;;;;;;;;21.74;55.92;101012.75;4980836;28;2136;-74
2023/09/17 00:21:32;;;;;;;;;;;;;;;21.74;56.00;101012.75;4978686;28;2171;-80
2023/09/17 00:23:58;;;;;;;;;;;;;;;21.74;56.14;101012.75;4979634;28;2042;-74
2023/09/17 00:26:25;;;;;;;;;;;;;;;21.75;55.85;101019.25;4980286;28;2215;-74
2023/09/17 00:28:52;;;;;;;;;;;;;;;21.79;55.85;101013.69;4979526;28;1676;-74
2023/09/17 00:31:18;;;;;;;;;;;;;;;21.77;55.67;101018.63;4977204;28;6135;-73
2023/09/17 00:33:45;;;;;;;;;;;;;;;21.70;55.81;101015.47;4973796;28;2293;-74
2023/09/17 00:36:11;;;;;;;;;;;;;;;21.71;55.60;101014.06;4978750;28;2216;-73
2023/09/17 00:38:38;;;;;;;;;;;;;;;21.73;55.90;101007.63;4978444;28;2157;-73
2023/09/17 00:41:04;;;;;;;;;;;;;;;21.72;55.72;101015.56;4978433;28;2460;-74
2023/09/17 00:43:31;;;;;;;;;;;;;;;21.65;55.54;101022.44;4971350;28;2188;-73
2023/09/17 00:45:57;;;;;;;;;;;;;;;21.71;55.30;101014.06;4977625;28;2245;-73
2023/09/17 00:48:24;;;;;;;;;;;;;;;21.66;55.19;101012.41;4987818;28;2149;-74
2023/09/17 00:50:51;;;;;;;;;;;;;;;21.64;55.27;101018.06;4994068;28;2211;-74
2023/09/17 00:53:17;;;;;;;;;;;;;;;21.72;55.12;101021.31;4978933;28;1620;-74
2023/09/17 00:55:43;;;;;;;;;;;;;;;21.70;55.34;101017.59;4976845;28;2155;-74
2023/09/17 00:58:10;;;;;;;;;;;;;;;21.68;55.06;101015.38;4980015;28;1940;-73
2023/09/17 01:00:38;;;;;;;;;;;;;;;21.66;55.29;101006.63;4977135;28;6304;-74
2023/09/17 01:03:07;;;;;;;;;;;;;;;21.59;55.39;101007.03;4976711;28;2184;-74
2023/09/17 01:05:36;;;;;;;;;;;;;;;21.62;55.39;101006.44;4977983;28;2435;-74
2023/09/17 01:08:05;;;;;;;;;;;;;;;21.55;55.66;101010.47;4979071;28;1622;-73
2023/09/17 01:10:32;;;;;;;;;;;;;;;21.59;54.99;101016.41;4978793;28;2096;-74
2023/09/17 01:12:59;;;;;;;;;;;;;;;21.61;55.30;101016.50;4977306;28;2113;-74
2023/09/17 01:15:27;;;;;;;;;;;;;;;21.62;55.19;101012.22;4992164;28;1891;-74
2023/09/17 01:17:54;;;;;;;;;;;;;;;21.57;55.00;101013.44;4978115;28;2402;-74
2023/09/17 01:20:29;;;;;;;;;;;;;;;21.57;55.20;101016.31;4982600;28;2340;-73
2023/09/17 01:22:56;;;;;;;;;;;;;;;21.58;55.32;101023.59;4958847;28;2144;-74
2023/09/17 01:25:40;;;;;;;;;;;;;;;21.58;55.01;101014.94;4975814;28;1918;-74
2023/09/17 01:28:07;;;;;;;;;;;;;;;21.63;54.90;101002.19;4959699;28;2198;-74
2023/09/17 01:30:33;;;;;;;;;;;;;;;21.61;55.12;101004.97;4972682;28;6062;-74
2023/09/17 01:33:01;;;;;;;;;;;;;;;21.56;55.21;101009.09;4978890;28;2288;-74
2023/09/17 01:35:28;;;;;;;;;;;;;;;21.58;55.05;101006.28;4975908;28;2118;-73
2023/09/17 01:37:54;;;;;;;;;;;;;;;21.57;54.65;101019.19;4978316;28;1621;-73
2023/09/17 01:40:21;;;;;;;;;;;;;;;21.53;54.70;101010.38;4975838;28;2173;-74
2023/09/17 01:42:48;;;;;;;;;;;;;;;21.52;54.90;101012.53;4982964;28;2069;-74
2023/09/17 01:45:14;;;;;;;;;;;;;;;21.49;54.85;101010.22;4981950;28;2201;-74
2023/09/17 01:47:41;;;;;;;;;;;;;;;21.56;54.83;101023.50;4992535;28;2141;-73
2023/09/17 01:50:08;;;;;;;;;;;;;;;21.50;54.62;101026.09;4975125;28;2061;-74
2023/09/17 01:52:34;;;;;;;;;;;;;;;21.51;54.68;101033.38;4975750;28;2290;-74
2023/09/17 01:55:01;;;;;;;;;;;;;;;21.52;54.63;101026.94;4976311;28;2319;-74
2023/09/17 01:57:27;;;;;;;;;;;;;;;21.58;54.31;101020.69;4977656;28;2136;-74
2023/09/17 01:59:53;;;;;;;;;;;;;;;21.52;54.75;101026.19;4993922;28;1795;-74
2023/09/17 02:02:21;;;;;;;;;;;;;;;21.54;54.63;101023.41;4973727;28;6231;-73
2023/09/17 02:04:48;;;;;;;;;;;;;;;21.45;54.82;101015.78;4985030;28;2230;-74
2023/09/17 02:07:17;;;;;;;;;;;;;;;21.45;54.78;101021.56;4994288;28;1658;-73
2023/09/17 02:09:44;;;;;;;;;;;;;;;21.44;54.72;101031.59;4974011;28;2209;-74
2023/09/17 02:12:11;;;;;;;;;;;;;;;21.45;54.37;101021.56;4979088;28;1649;-73
2023/09/17 02:14:38;;;;;;;;;;;;;;;21.44;54.42;101014.28;4992259;28;2125;-74
2023/09/17 02:17:04;;;;;;;;;;;;;;;21.42;54.39;101023.59;4976182;28;2083;-74
2023/09/17 02:19:31;;;;;;;;;;;;;;;21.46;53.82;101028.78;4975899;28;2124;-74
2023/09/17 02:21:57;;;;;;;;;;;;;;;21.43;54.22;101018.59;4977560;28;1917;-74
2023/09/17 02:24:24;;;;;;;;;;;;;;;21.43;54.21;101021.47;4977177;28;2117;-74
2023/09/17 02:26:50;;;;;;;;;;;;;;;21.38;54.35;101022.66;4976267;28;2624;-73
2023/09/17 02:29:18;;;;;;;;;;;;;;;21.37;54.46;101016.13;4977559;28;1846;-74
2023/09/17 02:31:44;;;;;;;;;;;;;;;21.43;54.05;101027.97;4972969;28;6064;-73
2023/09/17 02:34:11;;;;;;;;;;;;;;;21.38;54.20;101016.91;4975552;28;2089;-73
2023/09/17 02:36:38;;;;;;;;;;;;;;;21.37;53.94;101029.81;4990400;28;2132;-73
2023/09/17 02:39:06;;;;;;;;;;;;;;;21.37;53.80;101024.78;4975301;28;1926;-74
2023/09/17 02:41:32;;;;;;;;;;;;;;;21.42;53.62;101023.59;4977164;28;2126;-73
2023/09/17 02:43:59;;;;;;;;;;;;;;;21.37;53.65;101024.78;4978277;28;2008;-73
2023/09/17 02:46:25;;;;;;;;;;;;;;;21.39;53.72;101021.25;4975786;28;2361;-74
2023/09/17 02:48:54;;;;;;;;;;;;;;;21.41;53.81;101018.50;4976082;28;2659;-74
2023/09/17 02:51:21;;;;;;;;;;;;;;;21.34;53.40;101015.31;4973894;28;2614;-73
2023/09/17 02:53:47;;;;;;;;;;;;;;;21.33;53.71;101016.72;4978685;28;2250;-74
2023/09/17 02:56:14;;;;;;;;;;;;;;;21.29;53.69;101010.75;4976640;28;2566;-75
2023/09/17 02:58:42;;;;;;;;;;;;;;;21.30;53.39;101018.03;4978123;28;2282;-74
2023/09/17 03:01:15;;;;;;;;;;;;;;;21.37;53.07;101009.63;4975997;28;6316;-74
2023/09/17 03:03:42;;;;;;;;;;;;;;;21.34;53.52;101000.91;4976248;28;2144;-74
2023/09/17 03:06:10;;;;;;;;;;;;;;;21.30;53.36;101009.38;4975116;28;2155;-75
2023/09/17 03:08:43;;;;;;;;;;;;;;;21.29;53.52;101012.91;4988779;28;2203;-74
2023/09/17 03:11:12;;;;;;;;;;;;;;;21.33;53.14;101016.72;4989220;28;2152;-73
2023/09/17 03:13:40;;;;;;;;;;;;;;;21.34;53.38;101018.19;4974064;28;2187;-74
2023/09/17 03:16:07;;;;;;;;;;;;;;;21.28;53.48;101014.28;4986116;28;2184;-73
2023/09/17 03:18:34;;;;;;;;;;;;;;;21.30;53.40;101020.13;4986921;28;2143;-73
2023/09/17 03:21:05;;;;;;;;;;;;;;;21.28;53.36;101020.81;4988211;28;2209;-74
2023/09/17 03:23:31;;;;;;;;;;;;;;;21.28;53.22;101017.94;4991775;28;2385;-74
2023/09/17 03:25:58;;;;;;;;;;;;;;;21.31;53.24;101019.50;4975863;28;2419;-74
2023/09/17 03:28:24;;;;;;;;;;;;;;;21.33;53.24;101016.72;4982095;28;2211;-75
2023/09/17 03:30:51;;;;;;;;;;;;;;;21.39;53.34;101018.38;4975416;28;6084;-74
2023/09/17 03:33:18;;;;;;;;;;;;;;;21.25;53.54;101010.56;4970198;28;2229;-75
2023/09/17 03:35:46;;;;;;;;;;;;;;;21.25;53.57;101024.97;4989503;28;2067;-75
2023/09/17 03:38:12;;;;;;;;;;;;;;;21.25;53.59;101024.97;4975701;28;2008;-75
2023/09/17 03:40:39;;;;;;;;;;;;;;;21.27;53.55;101027.22;4976492;28;2179;-75
2023/09/17 03:43:08;;;;;;;;;;;;;;;21.29;53.35;101028.03;4961091;28;1905;-76
2023/09/17 03:45:34;;;;;;;;;;;;;;;21.28;53.54;101025.81;4974280;28;2181;-75
2023/09/17 03:48:01;;;;;;;;;;;;;;;21.30;53.54;101035.31;4991918;28;2127;-75
2023/09/17 03:50:28;;;;;;;;;;;;;;;21.29;53.49;101025.16;4975627;28;1994;-76
2023/09/17 03:52:56;;;;;;;;;;;;;;;21.25;53.71;101035.75;4974932;28;1697;-75
2023/09/17 03:55:23;;;;;;;;;;;;;;;21.26;53.63;101026.47;4982728;28;2223;-75
2023/09/17 03:57:50;;;;;;;;;;;;;;;21.28;53.36;101026.56;4986700;28;1837;-75
2023/09/17 04:00:20;;;;;;;;;;;;;;;21.24;53.51;101025.66;4977850;28;6247;-75
2023/09/17 04:02:49;;;;;;;;;;;;;;;21.28;53.14;101032.31;4993791;28;2182;-75
2023/09/17 04:05:16;;;;;;;;;;;;;;;21.25;53.23;101038.63;4978753;28;2263;-75
2023/09/17 04:07:43;;;;;;;;;;;;;;;21.22;53.40;101029.16;4979834;28;2214;-75
2023/09/17 04:10:10;;;;;;;;;;;;;;;21.22;53.05;101034.91;4991336;28;2049;-75
2023/09/17 04:12:37;;;;;;;;;;;;;;;21.21;52.96;101029.81;4980164;28;1782;-75
2023/09/17 04:15:08;;;;;;;;;;;;;;;21.19;53.36;101035.47;4980296;28;2345;-75
2023/09/17 04:17:34;;;;;;;;;;;;;;;21.18;52.98;101039.75;4980142;28;2153;-75
2023/09/17 04:20:01;;;;;;;;;;;;;;;21.16;52.95;101043.28;4994214;28;2197;-75
2023/09/17 04:22:27;;;;;;;;;;;;;;;21.14;53.02;101037.41;4979120;28;2218;-75
2023/09/17 04:24:54;;;;;;;;;;;;;;;21.16;52.99;101048.28;4993372;28;1910;-75
2023/09/17 04:27:20;;;;;;;;;;;;;;;21.15;52.93;101043.94;4977608;28;1877;-75
2023/09/17 04:29:49;;;;;;;;;;;;;;;21.13;53.00;101045.31;4978348;28;2282;-75
2023/09/17 04:32:16;;;;;;;;;;;;;;;21.16;52.90;101043.28;4981017;28;6380;-75
2023/09/17 04:34:43;;;;;;;;;;;;;;;21.15;52.54;101044.69;4988486;28;2114;-75
2023/09/17 04:37:10;;;;;;;;;;;;;;;21.13;52.89;101050.34;4979214;28;2124;-75
2023/09/17 04:39:37;;;;;;;;;;;;;;;21.09;52.83;101038.63;4978474;28;2202;-75
2023/09/17 04:42:03;;;;;;;;;;;;;;;21.10;52.66;101040.13;4994004;28;2155;-75
2023/09/17 04:44:29;;;;;;;;;;;;;;;21.12;52.55;101037.34;4984386;28;2089;-75
2023/09/17 04:46:56;;;;;;;;;;;;;;;21.10;52.37;101046.63;4979678;28;2200;-75
2023/09/17 04:49:23;;;;;;;;;;;;;;;21.10;52.26;101043.00;4975655;28;2002;-76
2023/09/17 04:51:49;;;;;;;;;;;;;;;21.10;52.41;101040.13;4980595;28;2245;-75
2023/09/17 04:54:18;;;;;;;;;;;;;;;21.10;52.03;101045.88;4977606;28;2290;-75
2023/09/17 04:56:44;;;;;;;;;;;;;;;21.09;52.30;101050.16;4979377;28;2304;-75
2023/09/17 04:59:11;;;;;;;;;;;;;;;21.07;52.32;101055.81;4977965;28;2158;-75
2023/09/17 05:01:37;;;;;;;;;;;;;;;21.06;52.21;101054.34;4991979;28;6364;-75
2023/09/17 05:04:04;;;;;;;;;;;;;;;21.05;52.36;101055.72;4993973;28;2293;-75
2023/09/17 05:06:31;;;;;;;;;;;;;;;21.10;52.25;101057.41;4979570;28;1991;-75
2023/09/17 05:08:57;;;;;;;;;;;;;;;21.07;52.17;101052.94;4978140;28;2205;-75
2023/09/17 05:11:24;;;;;;;;;;;;;;;21.10;52.11;101058.16;4979708;28;1723;-75
2023/09/17 05:13:50;;;;;;;;;;;;;;;21.07;52.40;101058.69;4989561;28;2258;-75
2023/09/17 05:16:17;;;;;;;;;;;;;;;21.04;52.74;101063.63;4991413;28;2186;-75
2023/09/17 05:18:47;;;;;;;;;;;;;;;21.07;52.51;101064.44;4991846;28;2136;-75
2023/09/17 05:21:14;;;;;;;;;;;;;;;21.05;52.59;101064.34;4979683;28;2122;-75
2023/09/17 05:23:41;;;;;;;;;;;;;;;21.05;52.67;101061.47;4988775;28;2086;-75
2023/09/17 05:26:07;;;;;;;;;;;;;;;21.06;52.70;101065.84;4975777;28;1988;-75
2023/09/17 05:28:35;;;;;;;;;;;;;;;21.02;53.09;101057.03;4976522;28;2257;-75
2023/09/17 05:31:03;;;;;;;;;;;;;;;21.00;53.39;101056.91;4982098;28;6065;-76
2023/09/17 05:33:30;;;;;;;;;;;;;;;21.04;53.42;101060.00;4966898;28;2498;-72
2023/09/17 05:35:58;;;;;;;;;;;;;;;20.67;54.29;101072.66;4978557;28;2530;-72
2023/09/17 05:38:27;;;;;;;;;;;;;;;20.45;54.93;101070.13;4986095;28;2321;-71
2023/09/17 05:40:53;;;;;;;;;;;;;;;20.37;55.49;101078.38;4989970;28;2231;-71
2023/09/17 05:43:20;;;;;;;;;;;;;;;20.35;55.58;101081.16;4993444;28;2301;-71
2023/09/17 05:45:46;;;;;;;;;;;;;;;20.33;56.17;101086.78;4989645;28;1931;-71
2023/09/17 05:48:17;;;;;;;;;;;;;;;20.31;56.50;101086.69;4991024;28;1978;-71
2023/09/17 05:50:43;;;;;;;;;;;;;;;20.29;56.76;101095.22;4988155;28;1896;-72
2023/09/17 05:53:10;;;;;;;;;;;;;;;20.29;57.08;101095.22;4992546;28;2357;-71
2023/09/17 05:55:36;;;;;;;;;;;;;;;20.36;57.30;101105.63;4994353;28;2321;-74
2023/09/17 05:58:03;;;;;;;;;;;;;;;20.40;57.56;101105.09;4992027;28;1792;-75
2023/09/17 06:00:29;;;;;;;;;;;;;;;20.35;58.05;101109.91;4980554;28;6321;-74
2023/09/17 06:02:56;;;;;;;;;;;;;;;20.44;58.05;101114.66;4988691;28;2436;-72
2023/09/17 06:05:22;;;;;;;;;;;;;;;20.45;57.90;101118.28;4976418;28;2572;-72
2023/09/17 06:07:49;;;;;;;;;;;;;;;20.68;57.23;101111.53;4991719;28;1634;-73
2023/09/17 06:10:15;;;;;;;;;;;;;;;20.78;57.26;101112.03;4980618;28;2215;-73
2023/09/17 06:12:42;;;;;;;;;;;;;;;20.82;57.20;101115.13;4977595;28;2882;-75
2023/09/17 06:15:08;;;;;;;;;;;;;;;20.85;57.17;101118.84;4977162;28;2296;-75
2023/09/17 06:17:36;;;;;;;;;;;;;;;20.86;56.96;101120.31;4966978;28;1807;-75
2023/09/17 06:20:02;;;;;;;;;;;;;;;20.88;57.07;101121.16;4987498;28;2015;-74
2023/09/17 06:22:29;;;;;;;;;;;;;;;20.91;56.99;101122.75;4977950;28;1936;-74
2023/09/17 06:24:55;;;;;;;;;;;;;;;20.90;56.69;101121.25;4990812;28;2286;-73
2023/09/17 06:27:22;;;;;;;;;;;;;;;20.90;56.83;101123.41;4977915;28;2161;-72
2023/09/17 06:29:48;;;;;;;;;;;;;;;21.23;59.24;101122.78;4975782;28;2422;-77
2023/09/17 06:32:15;;;;;;;;;;;;;;;21.52;57.43;101119.13;4979960;28;6567;-76
2023/09/17 06:34:42;;;;;;;;;;;;;;;21.61;56.76;101120.25;4986351;28;2346;-77
2023/09/17 06:37:10;;;;;;;;;;;;;;;21.69;56.37;101131.38;4970150;28;2201;-77
2023/09/17 06:39:36;;;;;;;;;;;;;;;21.78;56.26;101123.84;4971136;28;2083;-77
2023/09/17 06:42:03;;;;;;;;;;;;;;;21.81;55.53;101129.06;4975073;28;2364;-77
2023/09/17 06:44:29;;;;;;;;;;;;;;;21.75;54.97;101123.75;4975216;28;2187;-73
2023/09/17 06:46:56;;;;;;;;;;;;;;;21.59;54.96;101128.78;4974785;28;2298;-72
2023/09/17 06:49:22;;;;;;;;;;;;;;;21.50;55.50;101135.59;4975453;28;2156;-72
2023/09/17 06:51:50;;;;;;;;;;;;;;;21.42;55.68;101138.09;4976426;28;2207;-72
2023/09/17 06:54:16;;;;;;;;;;;;;;;21.39;55.70;101130.72;4978855;28;2181;-72
2023/09/17 06:56:43;;;;;;;;;;;;;;;21.28;56.04;101136.03;4977933;28;2422;-73
2023/09/17 06:59:09;;;;;;;;;;;;;;;21.26;56.26;101127.28;4978583;28;2416;-73
2023/09/17 07:01:36;;;;;;;;;;;;;;;21.28;56.26;101136.03;4976572;28;6869;-72
2023/09/17 07:04:02;;;;;;;;;;;;;;;21.27;56.34;101139.53;4979062;28;1932;-72
2023/09/17 07:06:29;;;;;;;;;;;;;;;21.30;56.29;101139.00;4973952;28;2223;-72
2023/09/17 07:08:57;;;;;;;;;;;;;;;21.29;56.40;101143.25;4976978;28;1708;-72
2023/09/17 07:11:23;;;;;;;;;;;;;;;21.30;56.61;101141.88;4975883;28;1807;-72
2023/09/17 07:13:49;;;;;;;;;;;;;;;21.32;56.50;101141.22;4977820;28;1837;-72
2023/09/17 07:16:18;;;;;;;;;;;;;;;21.36;56.35;101140.66;4975367;28;1573;-72
2023/09/17 07:18:44;;;;;;;;;;;;;;;21.36;56.20;101143.56;4978056;28;2215;-72
2023/09/17 07:21:11;;;;;;;;;;;;;;;21.42;56.07;101141.00;4990691;28;3241;-73
2023/09/17 07:23:37;;;;;;;;;;;;;;;21.40;56.16;101141.63;4976852;28;1932;-72
2023/09/17 07:26:06;;;;;;;;;;;;;;;21.42;56.18;101141.00;4973542;28;2007;-72
2023/09/17 07:28:33;;;;;;;;;;;;;;;21.41;56.05;101137.34;4976803;28;2035;-72
2023/09/17 07:30:59;;;;;;;;;;;;;;;21.44;55.86;101130.28;4977083;28;6655;-73
2023/09/17 07:33:26;;;;;;;;;;;;;;;21.46;55.85;101144.03;4975585;28;2027;-73
2023/09/17 07:35:52;;;;;;;;;;;;;;;21.48;56.09;101141.25;4976591;28;2183;-73
2023/09/17 07:38:19;;;;;;;;;;;;;;;21.48;55.81;101142.00;4976966;28;2183;-72
2023/09/17 07:40:47;;;;;;;;;;;;;;;21.48;55.85;101141.25;4975960;28;2049;-72
2023/09/17 07:43:14;;;;;;;;;;;;;;;21.50;55.70;101132.69;4977927;28;2061;-72
2023/09/17 07:45:40;;;;;;;;;;;;;;;21.50;55.63;101144.22;4976326;28;1979;-72
2023/09/17 07:48:06;;;;;;;;;;;;;;;21.49;55.86;101139.88;4976158;28;2128;-72
2023/09/17 07:50:33;;;;;;;;;;;;;;;21.50;55.66;101138.47;4978603;28;1767;-72
2023/09/17 07:52:59;;;;;;;;;;;;;;;21.50;55.83;101130.56;4976259;28;2159;-73
2023/09/17 07:55:26;;;;;;;;;;;;;;;21.51;55.65;101131.31;4977403;28;1783;-73
2023/09/17 07:57:52;;;;;;;;;;;;;;;21.51;55.65;101128.44;4975549;28;1638;-73
2023/09/17 08:00:20;;;;;;;;;;;;;;;21.50;55.86;101144.22;4977691;28;6286;-73
2023/09/17 08:02:48;;;;;;;;;;;;;;;21.50;56.01;101135.59;4974686;28;2014;-72
2023/09/17 08:05:15;;;;;;;;;;;;;;;21.50;56.00;101138.47;4975226;28;2184;-72
2023/09/17 08:07:41;;;;;;;;;;;;;;;21.50;55.87;101132.69;4981176;28;2121;-73
2023/09/17 08:10:08;;;;;;;;;;;;;;;21.52;55.61;101141.44;4980629;28;2250;-73
2023/09/17 08:12:34;;;;;;;;;;;;;;;21.53;55.56;101142.91;4977645;28;2233;-73
2023/09/17 08:15:01;;;;;;;;;;;;;;;21.52;55.47;101130.66;4976706;28;1823;-73
2023/09/17 08:17:27;;;;;;;;;;;;;;;21.53;55.52;101137.16;4977999;28;1933;-73
2023/09/17 08:19:54;;;;;;;;;;;;;;;21.54;55.73;101144.44;4976693;28;2196;-73
2023/09/17 08:22:22;;;;;;;;;;;;;;;21.54;55.59;101138.66;4975927;28;2176;-72
2023/09/17 08:24:48;;;;;;;;;;;;;;;21.54;55.83;101141.53;4978350;28;2038;-73
2023/09/17 08:27:16;;;;;;;;;;;;;;;21.54;55.68;101144.44;4980919;28;1915;-73
2023/09/17 08:29:43;;;;;;;;;;;;;;;21.52;55.75;101153.72;4976426;28;1919;-73
2023/09/17 08:32:11;;;;;;;;;;;;;;;21.52;55.87;101147.94;4974931;28;6209;-73
2023/09/17 08:34:37;;;;;;;;;;;;;;;21.53;55.90;101145.81;4976612;28;2215;-73
2023/09/17 08:37:04;;;;;;;;;;;;;;;21.54;55.86;101144.44;4975048;28;2184;-73
2023/09/17 08:39:31;;;;;;;;;;;;;;;21.54;55.68;101144.44;4980535;28;1811;-72
2023/09/17 08:42:01;;;;;;;;;;;;;;;21.54;55.77;101148.03;4978031;28;2245;-73
2023/09/17 08:44:27;;;;;;;;;;;;;;;21.56;55.83;101147.41;4979825;28;1649;-73
2023/09/17 08:46:53;;;;;;;;;;;;;;;21.56;55.82;101141.63;4980224;28;2005;-73
2023/09/17 08:49:20;;;;;;;;;;;;;;;21.55;55.65;101148.78;4978824;28;2129;-73
2023/09/17 08:51:46;;;;;;;;;;;;;;;21.56;55.53;101135.88;4979789;28;1779;-73
2023/09/17 08:54:14;;;;;;;;;;;;;;;21.58;55.76;101143.84;4994318;28;1769;-73
2023/09/17 08:56:42;;;;;;;;;;;;;;;21.58;55.77;101144.63;4979657;28;2066;-73
2023/09/17 08:59:09;;;;;;;;;;;;;;;21.59;55.67;101137.44;4982225;28;2152;-72
2023/09/17 09:01:36;;;;;;;;;;;;;;;21.58;55.61;101138.84;4979620;28;6147;-73
2023/09/17 09:04:03;;;;;;;;;;;;;;;21.59;55.50;101140.31;4981012;28;2096;-73
2023/09/17 09:06:30;;;;;;;;;;;;;;;21.60;55.53;101135.31;4994365;28;1914;-72
2023/09/17 09:08:56;;;;;;;;;;;;;;;21.60;55.63;101136.06;4979455;28;1646;-73
2023/09/17 09:11:22;;;;;;;;;;;;;;;21.62;55.71;101139.00;4993431;28;2144;-73
2023/09/17 09:13:52;;;;;;;;;;;;;;;21.61;55.53;101131.78;4979902;28;1804;-73
2023/09/17 09:16:19;;;;;;;;;;;;;;;21.61;55.55;101131.78;4980061;28;1966;-73
2023/09/17 09:18:46;;;;;;;;;;;;;;;21.63;55.71;101140.53;4979419;28;2323;-73
2023/09/17 09:21:14;;;;;;;;;;;;;;;21.63;55.64;101139.78;4977915;28;2100;-73
2023/09/17 09:23:40;;;;;;;;;;;;;;;21.63;55.51;101142.66;4978931;28;2185;-73
2023/09/17 09:26:07;;;;;;;;;;;;;;;21.63;55.36;101134.75;4979999;28;1927;-73
2023/09/17 09:28:34;;;;;;;;;;;;;;;21.64;55.63;101135.50;4975831;28;3926;-72
2023/09/17 09:31:00;;;;;;;;;;;;;;;21.64;55.77;101135.50;4978258;28;6329;-73
2023/09/17 09:33:27;;;;;;;;;;;;;;;21.65;55.62;101131.22;4977341;28;2054;-72
2023/09/17 09:35:54;;;;;;;;;;;;;;;21.65;55.74;101131.22;4978682;28;2210;-73
2023/09/17 09:38:21;;;;;;;;;;;;;;;21.64;55.53;101130.47;4985099;28;1806;-73
2023/09/17 09:40:47;;;;;;;;;;;;;;;21.64;55.50;101124.69;4978491;28;1851;-72
2023/09/17 09:43:28;;;;;;;;;;;;;;;21.66;55.78;101124.06;4980520;28;2168;-72
2023/09/17 09:45:54;;;;;;;;;;;;;;;21.67;55.58;101117.66;4980380;28;1918;-73
2023/09/17 09:48:21;;;;;;;;;;;;;;;21.69;55.43;101120.63;4978305;28;2050;-72
2023/09/17 09:50:48;;;;;;;;;;;;;;;21.70;55.31;101122.09;4980088;28;1811;-72
2023/09/17 09:53:14;;;;;;;;;;;;;;;21.71;55.14;101109.16;4978755;28;1987;-73
2023/09/17 09:55:40;;;;;;;;;;;;;;;21.71;55.34;101112.03;4978756;28;1650;-73
2023/09/17 09:58:08;;;;;;;;;;;;;;;21.73;55.32;101120.06;4979508;28;1648;-72
2023/09/17 10:00:34;;;;;;;;;;;;;;;21.73;55.22;101120.78;4977466;28;6221;-73
2023/09/17 10:03:01;;;;;;;;;;;;;;;21.74;55.47;101121.56;4994375;28;2258;-73
2023/09/17 10:05:31;;;;;;;;;;;;;;;21.74;55.19;101128.06;4962197;28;2072;-73
2023/09/17 10:07:57;;;;;;;;;;;;;;;21.75;55.41;101117.25;4979824;28;1988;-73
2023/09/17 10:10:23;;;;;;;;;;;;;;;21.75;55.37;101118.00;4982870;28;2158;-73
2023/09/17 10:12:54;;;;;;;;;;;;;;;21.77;55.15;101114.47;4978111;28;2192;-72
2023/09/17 10:15:20;;;;;;;;;;;;;;;21.77;55.14;101119.50;4983816;28;1747;-73
2023/09/17 10:17:47;;;;;;;;;;;;;;;21.78;55.40;101115.22;4977775;28;1639;-73
2023/09/17 10:20:13;;;;;;;;;;;;;;;21.78;55.07;101115.22;4993279;28;2089;-73
2023/09/17 10:22:40;;;;;;;;;;;;;;;21.79;55.30;101110.94;4981679;28;2032;-73
2023/09/17 10:25:07;;;;;;;;;;;;;;;21.79;55.41;101105.91;4976916;28;1643;-72
2023/09/17 10:27:36;;;;;;;;;;;;;;;21.80;55.28;101112.41;4994081;28;1910;-73
2023/09/17 10:30:03;;;;;;;;;;;;;;;21.81;55.42;101108.16;4977652;28;2220;-73
2023/09/17 10:32:30;;;;;;;;;;;;;;;21.76;55.52;101115.84;4974838;28;6145;-70
2023/09/17 10:34:59;;;;;;;;;;;;;;;21.84;55.71;101107.56;4974348;28;2276;-71
2023/09/17 10:37:27;;;;;;;;;;;;;;;21.87;55.53;101111.28;4977155;28;2651;-71
2023/09/17 10:39:53;;;;;;;;;;;;;;;21.86;55.33;101109.81;4975700;28;2250;-71
2023/09/17 10:42:20;;;;;;;;;;;;;;;21.88;55.41;101107.75;4974666;28;2219;-72
2023/09/17 10:44:47;;;;;;;;;;;;;;;21.83;55.93;101117.63;4971325;28;2617;-71
2023/09/17 10:47:13;;;;;;;;;;;;;;;21.91;55.70;101117.25;4976768;28;2191;-71
2023/09/17 10:49:40;;;;;;;;;;;;;;;21.92;56.00;101125.25;4984101;28;1762;-71
2023/09/17 10:52:09;;;;;;;;;;;;;;;21.92;55.83;101119.47;4977758;28;2312;-71
2023/09/17 10:54:35;;;;;;;;;;;;;;;21.92;56.32;101121.59;4976197;28;4130;-71
2023/09/17 10:57:04;;;;;;;;;;;;;;;21.92;56.41;101121.59;4977780;28;2228;-71
2023/09/17 10:59:30;;;;;;;;;;;;;;;21.93;56.80;101120.22;4974827;28;2663;-69
2023/09/17 11:01:57;;;;;;;;;;;;;;;21.97;57.30;101120.41;4975418;28;6683;-69
2023/09/17 11:04:23;;;;;;;;;;;;;;;22.00;58.13;101116.19;4975428;28;2485;-69
2023/09/17 11:06:50;;;;;;;;;;;;;;;22.04;58.73;101119.28;4989945;28;2417;-69
2023/09/17 11:09:17;;;;;;;;;;;;;;;22.06;58.71;101116.47;4976293;28;2486;-69
2023/09/17 11:11:43;;;;;;;;;;;;;;;22.07;58.85;101123.72;4975803;28;2345;-69
2023/09/17 11:14:09;;;;;;;;;;;;;;;22.09;58.89;101120.91;4979956;28;2243;-69
2023/09/17 11:16:36;;;;;;;;;;;;;;;22.10;58.41;101128.16;4980615;28;2321;-69
2023/09/17 11:19:04;;;;;;;;;;;;;;;22.10;58.26;101128.16;4976481;28;2314;-69
2023/09/17 11:21:38;;;;;;;;;;;;;;;22.13;58.58;101126.13;4976975;28;1724;-69
2023/09/17 11:24:06;;;;;;;;;;;;;;;22.14;58.51;101122.56;4976439;28;2196;-69
2023/09/17 11:26:37;;;;;;;;;;;;;;;22.13;58.37;101120.38;4977890;28;2292;-69
2023/09/17 11:29:05;;;;;;;;;;;;;;;22.14;57.90;101128.34;4977670;28;2157;-69
2023/09/17 11:31:36;;;;;;;;;;;;;;;22.15;58.02;101115.44;4976122;28;6189;-69
2023/09/17 11:34:05;;;;;;;;;;;;;;;22.13;58.20;101115.34;4975911;28;2425;-69
2023/09/17 11:36:32;;;;;;;;;;;;;;;22.16;57.90;101104.63;4976313;28;2259;-69
2023/09/17 11:39:02;;;;;;;;;;;;;;;22.17;57.60;101108.97;4976236;28;2215;-68
2023/09/17 11:41:31;;;;;;;;;;;;;;;22.20;57.84;101107.69;4976549;28;2177;-68
2023/09/17 11:43:57;;;;;;;;;;;;;;;22.24;57.47;101110.78;4975268;28;2113;-68
2023/09/17 11:46:23;;;;;;;;;;;;;;;22.26;57.46;101110.09;4979504;28;2192;-68
2023/09/17 11:48:50;;;;;;;;;;;;;;;22.26;57.37;101110.84;4980534;28;2213;-68
2023/09/17 11:51:20;;;;;;;;;;;;;;;22.27;57.59;101111.59;4974534;28;2180;-68
2023/09/17 11:54:00;;;;;;;;;;;;;;;22.30;57.21;101110.28;4975534;28;2128;-68
2023/09/17 11:56:28;;;;;;;;;;;;;;;22.30;57.64;101116.06;4977143;28;2244;-68
2023/09/17 11:59:04;;;;;;;;;;;;;;;22.32;57.56;101116.88;4976592;28;2166;-69
2023/09/17 12:01:32;;;;;;;;;;;;;;;22.36;57.55;101124.97;4975688;28;6153;-68
2023/09/17 12:03:58;;;;;;;;;;;;;;;22.37;57.62;101124.31;4974910;28;2221;-68
2023/09/17 12:06:26;;;;;;;;;;;;;;;22.38;57.59;101110.63;4975782;28;2263;-68
2023/09/17 12:08:52;;;;;;;;;;;;;;;22.39;57.61;101120.78;4979166;28;2284;-68
2023/09/17 12:11:21;;;;;;;;;;;;;;;22.38;57.88;101113.53;4976089;28;2484;-69
2023/09/17 12:13:53;;;;;;;;;;;;;;;22.38;57.48;101110.63;4978401;28;2559;-68
2023/09/17 12:16:23;;;;;;;;;;;;;;;22.38;57.63;101116.41;4980805;28;2251;-69
2023/09/17 12:18:53;;;;;;;;;;;;;;;22.40;57.60;101112.84;4978457;28;2140;-68
2023/09/17 12:21:31;;;;;;;;;;;;;;;22.41;57.70;101115.09;4978253;28;2279;-68
2023/09/17 12:24:00;;;;;;;;;;;;;;;22.45;57.07;101108.72;4979311;28;2173;-68
2023/09/17 12:26:27;;;;;;;;;;;;;;;22.45;57.32;101112.38;4979464;28;2227;-68
2023/09/17 12:28:54;;;;;;;;;;;;;;;22.47;57.22;101106.69;4979032;28;2189;-73
2023/09/17 12:31:20;;;;;;;;;;;;;;;22.48;56.89;101102.41;4980134;28;7057;-66
2023/09/17 12:33:47;;;;;;;;;;;;;;;22.50;56.77;101099.59;4978231;28;2124;-67
2023/09/17 12:36:13;;;;;;;;;;;;;;;22.50;57.21;101105.38;4977212;28;2413;-67
2023/09/17 12:38:39;;;;;;;;;;;;;;;22.51;57.16;101103.94;4980124;28;2272;-66
2023/09/17 12:41:06;;;;;;;;;;;;;;;22.55;57.12;101095.47;4977954;28;2208;-67
2023/09/17 12:43:32;;;;;;;;;;;;;;;22.53;57.00;101098.28;4980199;28;2054;-67
2023/09/17 12:45:59;;;;;;;;;;;;;;;22.53;57.48;101098.28;4981717;28;2211;-67
2023/09/17 12:48:26;;;;;;;;;;;;;;;22.53;57.20;101098.28;4981727;28;2192;-67